sensor_id;sensor_type;location;lat;lon;timestamp;temperature;humidity
14775;DHT22;7479;47.042;15.160;2024-02-21T07:49:07;3.20;99.90
14775;DHT22;7479;47.042;15.160;2024-02-21T07:54:00;3.30;99.90
14775;DHT22;7479;47.042;15.160;2024-02-21T07:58:54;3.50;99.90
14775;DHT22;7479;47.042;15.160;2024-02-21T08:03:48;3.70;99.90
14775;DHT22;7479;47.042;15.160;2024-02-21T08:08:43;3.80;99.90
14775;DHT22;7479;47.042;15.160;2024-02-21T08:20:38;4.20;99.90
14775;DHT22;7479;47.042;15.160;2024-02-21T08:25:32;4.40;99.90
14775;DHT22;7479;47.042;15.160;2024-02-21T08:30:26;4.90;99.90
14775;DHT22;7479;47.042;15.160;2024-02-21T08:35:20;5.30;99.90
14775;DHT22;7479;47.042;15.160;2024-02-21T08:40:16;5.60;99.90
14775;DHT22;7479;47.042;15.160;2024-02-21T08:45:13;5.90;99.90
14775;DHT22;7479;47.042;15.160;2024-02-21T08:50:07;6.00;99.90
14775;DHT22;7479;47.042;15.160;2024-02-21T08:55:19;6.10;99.90
14775;DHT22;7479;47.042;15.160;2024-02-21T09:07:32;6.20;99.90
14775;DHT22;7479;47.042;15.160;2024-02-21T09:12:26;6.30;99.90
14775;DHT22;7479;47.042;15.160;2024-02-21T09:17:20;6.60;99.90
14775;DHT22;7479;47.042;15.160;2024-02-21T09:22:14;7.00;99.90
14775;DHT22;7479;47.042;15.160;2024-02-21T09:27:09;7.20;99.90
14775;DHT22;7479;47.042;15.160;2024-02-21T09:32:03;7.50;99.90
14775;DHT22;7479;47.042;15.160;2024-02-21T09:36:57;7.90;99.90
14775;DHT22;7479;47.042;15.160;2024-02-21T09:41:56;8.20;99.90
14775;DHT22;7479;47.042;15.160;2024-02-21T09:55:28;9.40;99.80
14775;DHT22;7479;47.042;15.160;2024-02-21T10:00:24;9.90;96.30
14775;DHT22;7479;47.042;15.160;2024-02-21T10:05:18;10.40;95.50
14775;DHT22;7479;47.042;15.160;2024-02-21T10:10:12;10.90;93.30
14775;DHT22;7479;47.042;15.160;2024-02-21T10:15:09;11.40;92.10
14775;DHT22;7479;47.042;15.160;2024-02-21T10:20:12;12.10;90.40
14775;DHT22;7479;47.042;15.160;2024-02-21T10:25:10;12.50;81.50
14775;DHT22;7479;47.042;15.160;2024-02-21T10:30:04;12.70;74.90
14775;DHT22;7479;47.042;15.160;2024-02-21T10:35:04;13.10;73.30
14775;DHT22;7479;47.042;15.160;2024-02-21T10:39:58;13.00;69.20
14775;DHT22;7479;47.042;15.160;2024-02-21T10:44:53;12.80;68.00
14775;DHT22;7479;47.042;15.160;2024-02-21T10:49:57;12.60;68.00
14775;DHT22;7479;47.042;15.160;2024-02-21T10:55:03;13.10;68.10
14775;DHT22;7479;47.042;15.160;2024-02-21T10:59:59;12.90;67.00
14775;DHT22;7479;47.042;15.160;2024-02-21T11:04:53;12.60;67.20
14775;DHT22;7479;47.042;15.160;2024-02-21T11:09:51;12.80;67.10
14775;DHT22;7479;47.042;15.160;2024-02-21T11:14:48;13.80;63.90
14775;DHT22;7479;47.042;15.160;2024-02-21T11:19:42;14.70;59.20
14775;DHT22;7479;47.042;15.160;2024-02-21T11:24:36;14.60;58.90
14775;DHT22;7479;47.042;15.160;2024-02-21T11:29:32;14.50;58.70
14775;DHT22;7479;47.042;15.160;2024-02-21T11:34:27;14.10;58.20
14775;DHT22;7479;47.042;15.160;2024-02-21T11:39:21;13.70;59.60
14775;DHT22;7479;47.042;15.160;2024-02-21T11:44:16;13.40;59.40
14775;DHT22;7479;47.042;15.160;2024-02-21T11:49:10;14.00;57.60
14775;DHT22;7479;47.042;15.160;2024-02-21T11:54:06;14.20;60.30
14775;DHT22;7479;47.042;15.160;2024-02-21T11:59:00;14.50;59.60
14775;DHT22;7479;47.042;15.160;2024-02-21T12:03:53;14.10;61.10
14775;DHT22;7479;47.042;15.160;2024-02-21T12:08:48;14.00;63.20
14775;DHT22;7479;47.042;15.160;2024-02-21T12:13:43;14.50;64.70
14775;DHT22;7479;47.042;15.160;2024-02-21T12:18:39;14.80;65.30
14775;DHT22;7479;47.042;15.160;2024-02-21T12:23:33;14.80;65.10
14775;DHT22;7479;47.042;15.160;2024-02-21T12:28:26;14.30;65.80
14775;DHT22;7479;47.042;15.160;2024-02-21T12:33:22;13.80;68.40
14775;DHT22;7479;47.042;15.160;2024-02-21T12:38:16;13.50;69.10
14775;DHT22;7479;47.042;15.160;2024-02-21T12:43:10;13.70;65.50
14775;DHT22;7479;47.042;15.160;2024-02-21T12:48:05;15.00;64.80
14775;DHT22;7479;47.042;15.160;2024-02-21T12:53:01;16.40;61.00
14775;DHT22;7479;47.042;15.160;2024-02-21T12:58:03;17.00;60.10
14775;DHT22;7479;47.042;15.160;2024-02-21T13:02:58;16.30;59.50
14775;DHT22;7479;47.042;15.160;2024-02-21T13:07:51;15.60;58.40
14775;DHT22;7479;47.042;15.160;2024-02-21T13:12:47;16.10;58.70
14775;DHT22;7479;47.042;15.160;2024-02-21T13:17:40;16.00;57.20
14775;DHT22;7479;47.042;15.160;2024-02-21T13:22:35;16.20;58.90
14775;DHT22;7479;47.042;15.160;2024-02-21T13:27:28;16.40;58.20
14775;DHT22;7479;47.042;15.160;2024-02-21T13:32:24;15.90;59.20
14775;DHT22;7479;47.042;15.160;2024-02-21T13:37:18;15.60;59.20
14775;DHT22;7479;47.042;15.160;2024-02-21T13:42:14;15.70;59.50
14775;DHT22;7479;47.042;15.160;2024-02-21T13:47:08;15.90;59.10
14775;DHT22;7479;47.042;15.160;2024-02-21T13:52:05;15.50;60.80
14775;DHT22;7479;47.042;15.160;2024-02-21T13:57:01;15.10;60.80
14775;DHT22;7479;47.042;15.160;2024-02-21T14:01:54;14.90;61.30
14775;DHT22;7479;47.042;15.160;2024-02-21T14:06:49;14.80;61.10
14775;DHT22;7479;47.042;15.160;2024-02-21T14:11:44;14.70;61.50
14775;DHT22;7479;47.042;15.160;2024-02-21T14:16:39;14.90;62.20
14775;DHT22;7479;47.042;15.160;2024-02-21T14:21:32;14.90;59.20
14775;DHT22;7479;47.042;15.160;2024-02-21T14:26:26;15.00;59.30
14775;DHT22;7479;47.042;15.160;2024-02-21T14:31:21;15.10;59.70
14775;DHT22;7479;47.042;15.160;2024-02-21T14:36:15;16.60;59.20
14775;DHT22;7479;47.042;15.160;2024-02-21T14:41:09;19.60;53.70
14775;DHT22;7479;47.042;15.160;2024-02-21T14:46:04;22.30;49.60
14775;DHT22;7479;47.042;15.160;2024-02-21T14:51:00;24.30;45.30
14775;DHT22;7479;47.042;15.160;2024-02-21T14:55:53;24.40;43.20
14775;DHT22;7479;47.042;15.160;2024-02-21T15:00:47;25.00;41.00
14775;DHT22;7479;47.042;15.160;2024-02-21T15:05:41;24.50;41.30
14775;DHT22;7479;47.042;15.160;2024-02-21T15:10:36;23.00;42.90
14775;DHT22;7479;47.042;15.160;2024-02-21T15:15:30;19.90;44.00
14775;DHT22;7479;47.042;15.160;2024-02-21T15:20:24;17.10;47.80
14775;DHT22;7479;47.042;15.160;2024-02-21T15:25:18;15.60;51.00
14775;DHT22;7479;47.042;15.160;2024-02-21T15:30:14;14.80;52.70
14775;DHT22;7479;47.042;15.160;2024-02-21T15:35:08;14.30;54.00
14775;DHT22;7479;47.042;15.160;2024-02-21T15:40:03;13.80;55.70
14775;DHT22;7479;47.042;15.160;2024-02-21T15:44:58;13.40;57.90
14775;DHT22;7479;47.042;15.160;2024-02-21T15:49:58;13.20;59.40
14775;DHT22;7479;47.042;15.160;2024-02-21T15:54:53;13.10;60.10
14775;DHT22;7479;47.042;15.160;2024-02-21T15:59:47;13.00;61.90
14775;DHT22;7479;47.042;15.160;2024-02-21T16:04:42;12.50;65.50
14775;DHT22;7479;47.042;15.160;2024-02-21T16:09:37;12.40;67.10
14775;DHT22;7479;47.042;15.160;2024-02-21T16:14:36;12.30;68.90
14775;DHT22;7479;47.042;15.160;2024-02-21T16:19:32;12.10;69.10
14775;DHT22;7479;47.042;15.160;2024-02-21T16:24:25;11.80;70.60
14775;DHT22;7479;47.042;15.160;2024-02-21T16:29:21;11.60;72.10
14775;DHT22;7479;47.042;15.160;2024-02-21T16:34:16;11.20;73.80
14775;DHT22;7479;47.042;15.160;2024-02-21T16:39:10;10.90;75.40
14775;DHT22;7479;47.042;15.160;2024-02-21T16:44:04;10.60;76.80
14775;DHT22;7479;47.042;15.160;2024-02-21T16:49:00;10.30;78.80
14775;DHT22;7479;47.042;15.160;2024-02-21T16:53:54;9.90;81.80
14775;DHT22;7479;47.042;15.160;2024-02-21T16:58:47;9.70;83.40
14775;DHT22;7479;47.042;15.160;2024-02-21T17:03:41;9.50;84.70
14775;DHT22;7479;47.042;15.160;2024-02-21T17:08:37;9.30;86.70
14775;DHT22;7479;47.042;15.160;2024-02-21T17:13:33;9.10;88.20
14775;DHT22;7479;47.042;15.160;2024-02-21T17:18:27;8.80;89.90
14775;DHT22;7479;47.042;15.160;2024-02-21T17:23:21;8.70;90.80
14775;DHT22;7479;47.042;15.160;2024-02-21T17:28:16;8.50;91.30
14775;DHT22;7479;47.042;15.160;2024-02-21T17:33:10;8.40;92.00
